Time;durP1;ratioP1;P1;durP2;ratioP2;P2;SDS_P1;SDS_P2;PMS_P1;PMS_P2;Temp;Humidity;BMP_temperature;BMP_pressure;BME280_temperature;BME280_humidity;BME280_pressure;Samples;Min_cycle;Max_cycle;Signal;HPM_P1;HPM_P2
2022/11/18 00:01:23;;;;;;;;;;;11.00;99.90;;;;;;5033726;28;20000;-81
2022/11/18 00:03:49;;;;;;;;;;;11.00;99.90;;;;;;5039727;28;19913;-83
2022/11/18 00:06:19;;;;;;;;;;;11.00;99.90;;;;;;5033754;28;19917;-83
2022/11/18 00:08:44;;;;;;;;;;;11.10;99.90;;;;;;5035572;28;19916;-81
2022/11/18 00:11:12;;;;;;;;;;;11.10;99.90;;;;;;5036460;28;20000;-80
2022/11/18 00:16:22;;;;;;;;;;;11.00;99.90;;;;;;5034364;28;19955;-83
2022/11/18 00:18:47;;;;;;;;;;;10.90;99.90;;;;;;5032727;28;19909;-83
2022/11/18 00:21:13;;;;;;;;;;;10.80;99.90;;;;;;5036839;28;19931;-84
2022/11/18 00:23:38;;;;;;;;;;;10.80;99.90;;;;;;5038462;28;19913;-81
2022/11/18 00:26:05;;;;;;;;;;;10.70;99.90;;;;;;5036160;28;19916;-81
2022/11/18 00:28:31;;;;;;;;;;;10.70;99.90;;;;;;5035984;28;19909;-81
2022/11/18 00:31:03;;;;;;;;;;;10.70;99.90;;;;;;5035131;28;19909;-81
2022/11/18 00:33:29;;;;;;;;;;;10.70;99.90;;;;;;5032435;28;20004;-82
2022/11/18 00:35:55;;;;;;;;;;;10.60;99.90;;;;;;5035092;28;19941;-83
2022/11/18 00:38:21;;;;;;;;;;;10.60;99.90;;;;;;5039965;28;19916;-83
2022/11/18 00:40:46;;;;;;;;;;;10.70;99.90;;;;;;5037427;28;19916;-81
2022/11/18 00:43:12;;;;;;;;;;;10.70;99.90;;;;;;5034877;28;19913;-83
2022/11/18 00:45:37;;;;;;;;;;;10.70;99.90;;;;;;5033352;28;19948;-82
2022/11/18 00:48:03;;;;;;;;;;;10.70;99.90;;;;;;5032641;28;19913;-82
2022/11/18 00:50:28;;;;;;;;;;;10.80;99.90;;;;;;5032479;28;19915;-82
2022/11/18 00:52:54;;;;;;;;;;;10.80;99.90;;;;;;5031070;28;20313;-83
2022/11/18 00:55:19;;;;;;;;;;;10.90;99.90;;;;;;5031130;28;20011;-82
2022/11/18 00:57:44;;;;;;;;;;;10.80;99.90;;;;;;5034853;28;20321;-82
2022/11/18 01:00:10;;;;;;;;;;;10.90;99.90;;;;;;5031162;28;19916;-83
2022/11/18 01:02:36;;;;;;;;;;;10.90;99.90;;;;;;5032585;28;19913;-82
2022/11/18 01:05:02;;;;;;;;;;;10.90;99.90;;;;;;5031901;28;19920;-82
2022/11/18 01:07:28;;;;;;;;;;;11.00;99.90;;;;;;5032331;28;20322;-82
2022/11/18 01:09:54;;;;;;;;;;;11.00;99.90;;;;;;5032354;28;19909;-81
2022/11/18 01:15:04;;;;;;;;;;;11.10;99.90;;;;;;5031998;28;19915;-82
2022/11/18 01:17:30;;;;;;;;;;;11.10;99.90;;;;;;5033999;28;19988;-82
2022/11/18 01:19:55;;;;;;;;;;;11.10;99.90;;;;;;5035807;28;20016;-81
2022/11/18 01:22:21;;;;;;;;;;;11.20;99.90;;;;;;5036075;28;19913;-82
2022/11/18 01:24:46;;;;;;;;;;;11.20;99.90;;;;;;5034211;28;19920;-82
2022/11/18 01:27:12;;;;;;;;;;;11.20;99.90;;;;;;5035785;28;20407;-81
2022/11/18 01:29:37;;;;;;;;;;;11.20;99.90;;;;;;5035715;28;19909;-82
2022/11/18 01:32:03;;;;;;;;;;;11.20;99.90;;;;;;5035629;28;19955;-82
2022/11/18 01:34:28;;;;;;;;;;;11.20;99.90;;;;;;5034002;28;20371;-81
2022/11/18 01:36:55;;;;;;;;;;;11.20;99.90;;;;;;5034401;28;20007;-82
2022/11/18 01:39:20;;;;;;;;;;;11.20;99.90;;;;;;5035569;28;19909;-82
2022/11/18 01:41:46;;;;;;;;;;;11.20;99.90;;;;;;5034009;28;19915;-81
2022/11/18 01:44:30;;;;;;;;;;;11.20;99.90;;;;;;5035118;28;19916;-81
2022/11/18 01:46:55;;;;;;;;;;;11.20;99.90;;;;;;5040470;28;19909;-82
2022/11/18 01:49:21;;;;;;;;;;;11.30;99.90;;;;;;5043687;28;19924;-84
2022/11/18 01:51:48;;;;;;;;;;;11.20;99.90;;;;;;5042381;28;19913;-85
2022/11/18 01:54:23;;;;;;;;;;;11.20;99.90;;;;;;5043364;28;19909;-84
2022/11/18 01:56:51;;;;;;;;;;;11.20;99.90;;;;;;5043679;28;20445;-83
2022/11/18 01:59:18;;;;;;;;;;;11.20;99.90;;;;;;5043022;28;19913;-85
2022/11/18 02:01:44;;;;;;;;;;;11.20;99.90;;;;;;5043891;28;19910;-85
2022/11/18 02:04:10;;;;;;;;;;;11.30;99.90;;;;;;5043041;28;19913;-83
2022/11/18 02:06:35;;;;;;;;;;;11.20;99.90;;;;;;5039004;28;19917;-82
2022/11/18 02:09:02;;;;;;;;;;;11.20;99.90;;;;;;5035150;28;19920;-82
2022/11/18 02:12:09;;;;;;;;;;;11.20;99.90;;;;;;5035002;28;19948;-82
2022/11/18 02:14:18;;;;;;;;;;;11.20;99.90;;;;;;5034090;28;20585;-82
2022/11/18 02:16:51;;;;;;;;;;;11.20;99.90;;;;;;5033628;28;19909;-82
2022/11/18 02:19:25;;;;;;;;;;;11.20;99.90;;;;;;5034822;28;20005;-80
2022/11/18 02:22:14;;;;;;;;;;;11.30;99.90;;;;;;5037359;28;20370;-81
2022/11/18 02:24:50;;;;;;;;;;;11.30;99.90;;;;;;5035940;28;20012;-81
2022/11/18 02:27:21;;;;;;;;;;;11.30;99.90;;;;;;5038065;28;19905;-81
2022/11/18 02:30:07;;;;;;;;;;;11.30;99.90;;;;;;5037456;28;19940;-81
2022/11/18 02:32:40;;;;;;;;;;;11.30;99.90;;;;;;5037507;28;19992;-82
2022/11/18 02:35:25;;;;;;;;;;;11.40;99.90;;;;;;5035994;28;19956;-81
2022/11/18 02:37:54;;;;;;;;;;;11.40;99.90;;;;;;5036586;28;19909;-82
2022/11/18 02:40:24;;;;;;;;;;;11.40;99.90;;;;;;5037547;28;19909;-82
2022/11/18 02:43:01;;;;;;;;;;;11.40;99.90;;;;;;5037160;28;20286;-81
2022/11/18 02:45:27;;;;;;;;;;;11.40;99.90;;;;;;5036222;28;19913;-81
2022/11/18 02:47:54;;;;;;;;;;;11.30;99.90;;;;;;5035793;28;20286;-81
2022/11/18 02:50:21;;;;;;;;;;;11.30;99.90;;;;;;5035423;28;19986;-82
2022/11/18 02:52:50;;;;;;;;;;;11.20;99.90;;;;;;5036673;28;19909;-85
2022/11/18 02:55:16;;;;;;;;;;;11.20;99.90;;;;;;5036756;28;20343;-81
2022/11/18 02:57:43;;;;;;;;;;;11.10;99.90;;;;;;5036521;28;19913;-81
2022/11/18 03:00:09;;;;;;;;;;;11.10;99.90;;;;;;5035658;28;19910;-81
2022/11/18 03:02:42;;;;;;;;;;;11.10;99.90;;;;;;5036683;28;19909;-81
2022/11/18 03:05:12;;;;;;;;;;;11.10;99.90;;;;;;5034281;28;19999;-81
2022/11/18 03:07:39;;;;;;;;;;;11.20;99.90;;;;;;5035653;28;19975;-81
2022/11/18 03:10:05;;;;;;;;;;;11.20;99.90;;;;;;5035057;28;20008;-81
2022/11/18 03:12:30;;;;;;;;;;;11.20;99.90;;;;;;5035240;28;19948;-81
2022/11/18 03:14:59;;;;;;;;;;;11.20;99.90;;;;;;5034847;28;19910;-81
2022/11/18 03:17:31;;;;;;;;;;;11.20;99.90;;;;;;5034991;28;19988;-81
2022/11/18 03:20:06;;;;;;;;;;;11.20;99.90;;;;;;5034803;28;19916;-81
2022/11/18 03:22:31;;;;;;;;;;;11.10;99.90;;;;;;5035206;28;19920;-83
2022/11/18 03:25:06;;;;;;;;;;;11.20;99.90;;;;;;5034468;28;19913;-81
2022/11/18 03:27:48;;;;;;;;;;;11.20;99.90;;;;;;5035397;28;20275;-81
2022/11/18 03:30:16;;;;;;;;;;;11.20;99.90;;;;;;5035034;28;20274;-81
2022/11/18 03:32:43;;;;;;;;;;;11.10;99.90;;;;;;5034988;28;20391;-84
2022/11/18 03:35:11;;;;;;;;;;;11.10;99.90;;;;;;5041696;28;19940;-83
2022/11/18 03:37:38;;;;;;;;;;;11.10;99.90;;;;;;5041218;28;19920;-83
2022/11/18 03:40:21;;;;;;;;;;;11.10;99.90;;;;;;5042722;28;20408;-83
2022/11/18 03:42:49;;;;;;;;;;;11.10;99.90;;;;;;5041676;28;20329;-80
2022/11/18 03:45:20;;;;;;;;;;;11.10;99.90;;;;;;5041349;28;19913;-84
2022/11/18 03:47:49;;;;;;;;;;;11.10;99.90;;;;;;5042689;28;20371;-83
2022/11/18 03:50:20;;;;;;;;;;;11.20;99.90;;;;;;5041027;28;19909;-83
2022/11/18 03:52:47;;;;;;;;;;;11.10;99.90;;;;;;5042056;28;20387;-85
2022/11/18 03:55:15;;;;;;;;;;;11.10;99.90;;;;;;5042002;28;19913;-83
2022/11/18 03:57:49;;;;;;;;;;;11.10;99.90;;;;;;5042136;28;19916;-83
2022/11/18 04:00:15;;;;;;;;;;;11.10;99.90;;;;;;5042639;28;19932;-85
2022/11/18 04:02:41;;;;;;;;;;;11.10;99.90;;;;;;5041884;28;19978;-83
2022/11/18 04:05:08;;;;;;;;;;;11.20;99.90;;;;;;5041098;28;19917;-85
2022/11/18 04:07:37;;;;;;;;;;;11.20;99.90;;;;;;5041743;28;19909;-83
2022/11/18 04:10:09;;;;;;;;;;;11.20;99.90;;;;;;5042448;28;19913;-83
2022/11/18 04:12:37;;;;;;;;;;;11.30;99.90;;;;;;5041748;28;19909;-84
2022/11/18 04:15:03;;;;;;;;;;;11.30;99.90;;;;;;5042367;28;19921;-85
2022/11/18 04:17:28;;;;;;;;;;;11.30;99.90;;;;;;5042624;28;19893;-86
2022/11/18 04:19:54;;;;;;;;;;;11.30;99.90;;;;;;5048864;28;19915;-84
2022/11/18 04:22:19;;;;;;;;;;;11.30;99.90;;;;;;5038195;28;20287;-84
2022/11/18 04:24:45;;;;;;;;;;;11.30;99.90;;;;;;5037768;28;20295;-84
2022/11/18 04:27:10;;;;;;;;;;;11.30;99.90;;;;;;5038373;28;20117;-84
2022/11/18 04:29:36;;;;;;;;;;;11.30;99.90;;;;;;5037241;28;19932;-84
2022/11/18 04:32:02;;;;;;;;;;;11.30;99.90;;;;;;5038663;28;19920;-84
2022/11/18 04:34:28;;;;;;;;;;;11.30;99.90;;;;;;5036857;28;20354;-83
2022/11/18 04:36:53;;;;;;;;;;;11.30;99.90;;;;;;5036900;28;20000;-84
2022/11/18 04:39:19;;;;;;;;;;;11.20;99.90;;;;;;5037605;28;20268;-83
2022/11/18 04:41:57;;;;;;;;;;;11.20;99.90;;;;;;5039670;28;19909;-84
2022/11/18 04:44:29;;;;;;;;;;;11.20;99.90;;;;;;5039198;28;20322;-83
2022/11/18 04:46:56;;;;;;;;;;;11.20;99.90;;;;;;5037636;28;20264;-83
2022/11/18 04:49:21;;;;;;;;;;;11.10;99.90;;;;;;5038381;28;20012;-84
2022/11/18 04:51:47;;;;;;;;;;;11.10;99.90;;;;;;5039462;28;19947;-83
2022/11/18 04:54:13;;;;;;;;;;;11.10;99.90;;;;;;5041147;28;19910;-83
2022/11/18 04:56:39;;;;;;;;;;;11.10;99.90;;;;;;5041277;28;19963;-83
2022/11/18 04:59:04;;;;;;;;;;;11.10;99.90;;;;;;5040546;28;19909;-83
2022/11/18 05:01:30;;;;;;;;;;;11.00;99.90;;;;;;5042318;28;19909;-83
2022/11/18 05:03:56;;;;;;;;;;;10.90;99.90;;;;;;5042204;28;19913;-83
2022/11/18 05:06:21;;;;;;;;;;;10.90;99.90;;;;;;5040466;28;19921;-83
2022/11/18 05:08:47;;;;;;;;;;;10.80;99.90;;;;;;5042018;28;19909;-83
2022/11/18 05:13:56;;;;;;;;;;;10.70;99.90;;;;;;5041913;28;19947;-83
2022/11/18 05:16:22;;;;;;;;;;;10.60;99.90;;;;;;5040323;28;20355;-83
2022/11/18 05:18:47;;;;;;;;;;;10.60;99.90;;;;;;5041465;28;19992;-83
2022/11/18 05:21:13;;;;;;;;;;;10.60;99.90;;;;;;5041289;28;19909;-82
2022/11/18 05:23:38;;;;;;;;;;;10.50;99.90;;;;;;5040756;28;20004;-83
2022/11/18 05:26:04;;;;;;;;;;;10.40;99.90;;;;;;5041766;28;19978;-83
2022/11/18 05:28:30;;;;;;;;;;;10.30;99.90;;;;;;5039726;28;19909;-83
2022/11/18 05:30:55;;;;;;;;;;;10.20;99.90;;;;;;5040955;28;19909;-83
2022/11/18 05:33:21;;;;;;;;;;;10.20;99.90;;;;;;5039135;28;19935;-83
2022/11/18 05:35:46;;;;;;;;;;;10.20;99.90;;;;;;5038636;28;19913;-83
2022/11/18 05:38:12;;;;;;;;;;;10.20;99.90;;;;;;5038618;28;19909;-83
2022/11/18 05:40:37;;;;;;;;;;;10.10;99.90;;;;;;5038783;28;19913;-83
2022/11/18 05:43:11;;;;;;;;;;;10.10;99.90;;;;;;5040214;28;19948;-83
2022/11/18 05:45:39;;;;;;;;;;;10.10;99.90;;;;;;5040420;28;20290;-82
2022/11/18 05:48:06;;;;;;;;;;;10.10;99.90;;;;;;5040285;28;19916;-83
2022/11/18 05:50:33;;;;;;;;;;;10.10;99.90;;;;;;5040204;28;19917;-83
2022/11/18 05:52:59;;;;;;;;;;;10.10;99.90;;;;;;5039909;28;19975;-83
2022/11/18 05:55:26;;;;;;;;;;;10.20;99.90;;;;;;5039348;28;20379;-83
2022/11/18 05:57:52;;;;;;;;;;;10.20;99.90;;;;;;5037971;28;19909;-84
2022/11/18 06:00:17;;;;;;;;;;;10.20;99.90;;;;;;5037867;28;20375;-83
2022/11/18 06:02:45;;;;;;;;;;;10.30;99.90;;;;;;5037977;28;19909;-83
2022/11/18 06:05:10;;;;;;;;;;;10.30;99.90;;;;;;5037380;28;19917;-83
2022/11/18 06:07:43;;;;;;;;;;;10.30;99.90;;;;;;5039148;28;19909;-83
2022/11/18 06:10:16;;;;;;;;;;;10.30;99.90;;;;;;5037806;28;20287;-83
2022/11/18 06:12:43;;;;;;;;;;;10.30;99.90;;;;;;5038656;28;19913;-84
2022/11/18 06:15:11;;;;;;;;;;;10.40;99.90;;;;;;5039111;28;19909;-83
2022/11/18 06:17:45;;;;;;;;;;;10.40;99.90;;;;;;5039186;28;19920;-83
2022/11/18 06:20:11;;;;;;;;;;;10.40;99.90;;;;;;5036764;28;20020;-83
2022/11/18 06:22:37;;;;;;;;;;;10.40;99.90;;;;;;5036669;28;20002;-83
2022/11/18 06:25:03;;;;;;;;;;;10.40;99.90;;;;;;5037980;28;19917;-82
2022/11/18 06:27:29;;;;;;;;;;;10.40;99.90;;;;;;5038654;28;19917;-84
2022/11/18 06:29:54;;;;;;;;;;;10.40;99.90;;;;;;5038227;28;19999;-84
2022/11/18 06:32:19;;;;;;;;;;;10.50;99.90;;;;;;5038224;28;20367;-83
2022/11/18 06:34:45;;;;;;;;;;;10.50;99.90;;;;;;5038148;28;19913;-83
2022/11/18 06:37:14;;;;;;;;;;;10.50;99.90;;;;;;5038027;28;19913;-84
2022/11/18 06:39:39;;;;;;;;;;;10.40;99.90;;;;;;5036379;28;19970;-84
2022/11/18 06:42:05;;;;;;;;;;;10.40;99.90;;;;;;5036904;28;19909;-84
2022/11/18 06:44:30;;;;;;;;;;;10.50;99.90;;;;;;5035821;28;19920;-83
2022/11/18 06:46:56;;;;;;;;;;;10.50;99.90;;;;;;5036144;28;19913;-84
2022/11/18 06:49:22;;;;;;;;;;;10.50;99.90;;;;;;5036838;28;19920;-84
2022/11/18 06:51:47;;;;;;;;;;;10.50;99.90;;;;;;5035517;28;20052;-83
2022/11/18 06:54:13;;;;;;;;;;;10.50;99.90;;;;;;5035270;28;20367;-84
2022/11/18 06:56:38;;;;;;;;;;;10.50;99.90;;;;;;5037985;28;19985;-82
2022/11/18 06:59:04;;;;;;;;;;;10.60;99.90;;;;;;5035888;28;20274;-83
2022/11/18 07:01:30;;;;;;;;;;;10.60;99.90;;;;;;5035650;28;19909;-82
2022/11/18 07:03:59;;;;;;;;;;;10.70;99.90;;;;;;5036727;28;19967;-82
2022/11/18 07:06:26;;;;;;;;;;;10.70;99.90;;;;;;5034935;28;19917;-82
2022/11/18 07:08:51;;;;;;;;;;;10.70;99.90;;;;;;5035754;28;20289;-83
2022/11/18 07:11:18;;;;;;;;;;;10.80;99.90;;;;;;5036090;28;19996;-83
2022/11/18 07:13:44;;;;;;;;;;;10.80;99.90;;;;;;5035237;28;19913;-82
2022/11/18 07:16:20;;;;;;;;;;;10.90;99.90;;;;;;5033615;28;19910;-82
2022/11/18 07:18:46;;;;;;;;;;;10.90;99.90;;;;;;5034209;28;20379;-82
2022/11/18 07:21:13;;;;;;;;;;;10.90;99.90;;;;;;5035432;28;19913;-84
2022/11/18 07:23:39;;;;;;;;;;;10.90;99.90;;;;;;5035470;28;19909;-82
2022/11/18 07:26:04;;;;;;;;;;;10.90;99.90;;;;;;5033831;28;20024;-83
2022/11/18 07:28:30;;;;;;;;;;;11.00;99.90;;;;;;5035860;28;19952;-82
2022/11/18 07:31:11;;;;;;;;;;;11.00;99.90;;;;;;5035426;28;20473;-83
2022/11/18 07:33:38;;;;;;;;;;;11.10;99.90;;;;;;5035529;28;19937;-83
2022/11/18 07:36:05;;;;;;;;;;;11.10;99.90;;;;;;5034626;28;19968;-83
2022/11/18 07:38:30;;;;;;;;;;;11.10;99.90;;;;;;5033948;28;19999;-83
2022/11/18 07:41:10;;;;;;;;;;;11.10;99.90;;;;;;5033829;28;20358;-83
2022/11/18 07:43:36;;;;;;;;;;;11.10;99.90;;;;;;5034920;28;19996;-83
2022/11/18 07:46:08;;;;;;;;;;;11.10;99.90;;;;;;5036072;28;19956;-83
2022/11/18 07:48:34;;;;;;;;;;;11.10;99.90;;;;;;5033492;28;19944;-83
2022/11/18 07:50:59;;;;;;;;;;;11.10;99.90;;;;;;5033626;28;19909;-84
2022/11/18 07:53:25;;;;;;;;;;;11.10;99.90;;;;;;5037502;28;19909;-84
2022/11/18 07:55:51;;;;;;;;;;;11.10;99.90;;;;;;5045982;28;19913;-85
2022/11/18 07:58:16;;;;;;;;;;;11.10;99.90;;;;;;5045598;28;19909;-87
2022/11/18 08:00:42;;;;;;;;;;;11.10;99.90;;;;;;5046192;28;19963;-84
2022/11/18 08:03:07;;;;;;;;;;;11.20;99.90;;;;;;5045262;28;19962;-83
2022/11/18 08:05:33;;;;;;;;;;;11.20;99.90;;;;;;4980384;28;1844035;-84
2022/11/18 08:07:58;;;;;;;;;;;11.20;99.90;;;;;;5045976;28;19940;-84
2022/11/18 08:10:24;;;;;;;;;;;11.30;99.90;;;;;;5046913;28;19909;-85
2022/11/18 08:12:49;;;;;;;;;;;11.20;99.90;;;;;;5045537;28;19985;-82
2022/11/18 08:15:15;;;;;;;;;;;11.30;99.90;;;;;;5046637;28;19909;-85
2022/11/18 08:17:40;;;;;;;;;;;11.30;99.90;;;;;;5045669;28;19913;-86
2022/11/18 08:20:06;;;;;;;;;;;11.30;99.90;;;;;;5045883;28;19924;-83
2022/11/18 08:22:31;;;;;;;;;;;11.30;99.90;;;;;;5046593;28;19909;-85
2022/11/18 08:24:57;;;;;;;;;;;11.30;99.90;;;;;;5046478;28;19913;-86
2022/11/18 08:27:22;;;;;;;;;;;11.30;99.90;;;;;;5048993;28;19944;-84
2022/11/18 08:29:48;;;;;;;;;;;11.30;99.90;;;;;;5050789;28;19909;-82
2022/11/18 08:32:13;;;;;;;;;;;11.30;99.90;;;;;;5051371;28;19909;-86
2022/11/18 08:34:39;;;;;;;;;;;11.30;99.90;;;;;;5046655;28;19910;-84
2022/11/18 08:37:04;;;;;;;;;;;11.40;99.90;;;;;;5040402;28;19916;-86
2022/11/18 09:15:57;;;;;;;;;;;12.30;99.90;;;;;;5069006;28;19920;-82
2022/11/18 09:18:22;;;;;;;;;;;12.20;99.90;;;;;;5035626;28;19909;-82
2022/11/18 09:21:17;;;;;;;;;;;12.20;99.90;;;;;;5037348;28;19916;-83
2022/11/18 09:23:43;;;;;;;;;;;12.20;99.90;;;;;;5048244;28;19924;-86
2022/11/18 09:26:10;;;;;;;;;;;12.20;99.90;;;;;;5045606;28;19909;-84
2022/11/18 09:28:35;;;;;;;;;;;12.10;99.90;;;;;;5041812;28;19912;-84
2022/11/18 09:31:09;;;;;;;;;;;12.10;99.90;;;;;;5040162;28;20064;-83
2022/11/18 09:33:35;;;;;;;;;;;12.10;99.90;;;;;;5040244;28;19909;-83
2022/11/18 09:36:00;;;;;;;;;;;12.00;99.90;;;;;;5040341;28;20195;-84
2022/11/18 09:38:30;;;;;;;;;;;12.10;99.90;;;;;;5039992;28;19913;-83
2022/11/18 09:41:11;;;;;;;;;;;12.00;99.90;;;;;;5039911;28;19909;-84
2022/11/18 09:43:58;;;;;;;;;;;12.00;99.90;;;;;;5040496;28;19948;-83
2022/11/18 09:46:42;;;;;;;;;;;12.00;99.90;;;;;;5039875;28;19909;-83
2022/11/18 09:49:13;;;;;;;;;;;11.90;99.90;;;;;;5040830;28;19959;-83
2022/11/18 09:51:46;;;;;;;;;;;12.00;99.90;;;;;;5041205;28;19978;-83
2022/11/18 09:54:32;;;;;;;;;;;12.10;99.90;;;;;;5040405;28;19910;-83
2022/11/18 09:56:58;;;;;;;;;;;12.20;99.90;;;;;;5041019;28;19909;-83
2022/11/18 09:59:26;;;;;;;;;;;12.10;99.90;;;;;;5041524;28;19916;-83
2022/11/18 10:01:53;;;;;;;;;;;12.20;99.90;;;;;;5041550;28;19935;-86
2022/11/18 10:04:20;;;;;;;;;;;12.20;99.90;;;;;;5040717;28;20174;-82
2022/11/18 10:06:46;;;;;;;;;;;12.20;99.90;;;;;;5041238;28;19909;-84
2022/11/18 10:09:31;;;;;;;;;;;12.40;99.90;;;;;;5039554;28;19909;-84
2022/11/18 10:12:11;;;;;;;;;;;12.60;99.90;;;;;;5040085;28;19909;-83
2022/11/18 10:14:46;;;;;;;;;;;12.70;99.90;;;;;;5040031;28;19909;-83
2022/11/18 10:17:23;;;;;;;;;;;12.80;99.90;;;;;;5040730;28;19920;-83
2022/11/18 10:20:15;;;;;;;;;;;12.90;99.90;;;;;;5039164;28;20314;-83
2022/11/18 10:22:51;;;;;;;;;;;13.00;99.90;;;;;;5030801;28;19920;-83
2022/11/18 10:25:17;;;;;;;;;;;13.10;99.90;;;;;;5040023;28;20379;-83
2022/11/18 10:27:44;;;;;;;;;;;13.10;99.90;;;;;;5040769;28;19963;-84
2022/11/18 10:30:17;;;;;;;;;;;13.10;99.90;;;;;;5041804;28;19916;-83
2022/11/18 10:32:56;;;;;;;;;;;13.20;99.90;;;;;;5046935;28;19909;-82
2022/11/18 10:35:27;;;;;;;;;;;13.10;99.90;;;;;;5015829;28;19909;-81
2022/11/18 10:38:00;;;;;;;;;;;13.20;99.90;;;;;;5015827;28;19915;-81
2022/11/18 10:40:26;;;;;;;;;;;13.40;99.90;;;;;;5015262;28;19909;-83
2022/11/18 10:42:52;;;;;;;;;;;13.40;99.90;;;;;;5015422;28;19910;-82
2022/11/18 10:45:26;;;;;;;;;;;13.60;99.90;;;;;;5016802;28;19921;-82
2022/11/18 10:48:09;;;;;;;;;;;13.60;99.90;;;;;;5016840;28;19976;-83
2022/11/18 10:50:37;;;;;;;;;;;13.70;99.90;;;;;;5014866;28;19996;-81
2022/11/18 10:53:04;;;;;;;;;;;14.00;99.90;;;;;;5014945;28;20044;-83
2022/11/18 10:55:30;;;;;;;;;;;14.10;99.90;;;;;;5015873;28;19964;-81
2022/11/18 10:57:58;;;;;;;;;;;14.20;99.90;;;;;;5015455;28;19910;-82
2022/11/18 11:00:32;;;;;;;;;;;14.60;99.90;;;;;;5016202;28;19910;-82
2022/11/18 11:02:58;;;;;;;;;;;14.70;99.90;;;;;;5014701;28;19979;-81
2022/11/18 11:05:24;;;;;;;;;;;14.90;99.90;;;;;;5016100;28;19914;-82
2022/11/18 11:08:03;;;;;;;;;;;15.00;99.90;;;;;;5014857;28;20294;-83
2022/11/18 11:10:29;;;;;;;;;;;15.10;99.90;;;;;;5013934;28;19916;-81
2022/11/18 11:12:57;;;;;;;;;;;15.30;99.90;;;;;;5013266;28;19910;-83
2022/11/18 11:15:46;;;;;;;;;;;15.60;99.90;;;;;;5013104;28;19909;-82
2022/11/18 11:20:59;;;;;;;;;;;16.30;99.90;;;;;;5026010;28;19928;-86
2022/11/18 11:23:25;;;;;;;;;;;17.00;99.90;;;;;;5031719;28;19914;-84
2022/11/18 11:25:51;;;;;;;;;;;17.20;99.90;;;;;;5033081;28;20352;-85
2022/11/18 11:28:48;;;;;;;;;;;17.00;99.90;;;;;;5031811;28;19910;-83
2022/11/18 11:31:19;;;;;;;;;;;16.40;99.90;;;;;;5020327;28;19909;-84
2022/11/18 11:33:50;;;;;;;;;;;15.90;99.90;;;;;;5032185;28;20394;-81
2022/11/18 11:36:35;;;;;;;;;;;15.50;99.90;;;;;;5032716;28;19909;-81
2022/11/18 11:39:06;;;;;;;;;;;15.30;99.90;;;;;;5034268;28;19909;-82
2022/11/18 11:41:32;;;;;;;;;;;14.90;99.90;;;;;;5033016;28;19909;-81
2022/11/18 11:44:09;;;;;;;;;;;14.90;99.90;;;;;;5033368;28;19913;-81
2022/11/18 11:46:44;;;;;;;;;;;15.10;99.90;;;;;;5033676;28;20416;-81
2022/11/18 11:49:16;;;;;;;;;;;15.90;99.90;;;;;;5031872;28;19909;-83
2022/11/18 11:51:48;;;;;;;;;;;16.10;99.90;;;;;;5032293;28;19909;-84
2022/11/18 11:54:16;;;;;;;;;;;16.10;99.90;;;;;;5032989;28;19916;-83
2022/11/18 11:56:42;;;;;;;;;;;15.90;99.90;;;;;;5032629;28;19913;-83
2022/11/18 11:59:11;;;;;;;;;;;15.50;99.90;;;;;;5031370;28;19935;-83
2022/11/18 12:01:43;;;;;;;;;;;15.40;99.90;;;;;;5032336;28;19909;-81
2022/11/18 12:04:28;;;;;;;;;;;15.50;99.90;;;;;;5031378;28;19913;-80
2022/11/18 12:06:54;;;;;;;;;;;15.50;99.90;;;;;;5033535;28;19916;-81
2022/11/18 12:09:32;;;;;;;;;;;15.60;99.90;;;;;;5032685;28;19952;-81
2022/11/18 12:11:57;;;;;;;;;;;15.50;99.90;;;;;;5031021;28;20290;-81
2022/11/18 12:14:35;;;;;;;;;;;15.50;99.90;;;;;;5032607;28;20004;-82
2022/11/18 12:17:12;;;;;;;;;;;15.60;99.90;;;;;;5032876;28;19909;-82
2022/11/18 12:19:38;;;;;;;;;;;15.50;99.90;;;;;;5033111;28;19925;-83
2022/11/18 12:22:05;;;;;;;;;;;15.50;99.90;;;;;;5032748;28;19909;-82
2022/11/18 12:24:30;;;;;;;;;;;15.50;99.90;;;;;;5030815;28;19914;-82
2022/11/18 12:26:57;;;;;;;;;;;16.00;99.90;;;;;;5031338;28;19932;-84
2022/11/18 12:29:24;;;;;;;;;;;16.20;99.90;;;;;;5032861;28;19916;-83
2022/11/18 12:32:00;;;;;;;;;;;16.40;99.90;;;;;;5032649;28;19913;-84
2022/11/18 12:34:35;;;;;;;;;;;16.00;99.90;;;;;;5031045;28;19909;-84
2022/11/18 12:37:21;;;;;;;;;;;15.80;99.90;;;;;;5030941;28;19920;-84
2022/11/18 12:39:47;;;;;;;;;;;15.80;99.90;;;;;;5021405;28;19909;-84
2022/11/18 12:45:43;;;;;;;;;;;16.20;99.90;;;;;;5033273;28;20358;-84
2022/11/18 12:48:28;;;;;;;;;;;16.40;99.90;;;;;;5031893;28;19915;-84
2022/11/18 12:50:55;;;;;;;;;;;16.50;99.90;;;;;;5032357;28;19956;-83
2022/11/18 12:53:27;;;;;;;;;;;17.20;99.90;;;;;;5031411;28;19913;-83
2022/11/18 12:55:52;;;;;;;;;;;17.90;99.90;;;;;;5031205;28;19913;-84
2022/11/18 12:58:27;;;;;;;;;;;18.40;99.90;;;;;;5032662;28;19924;-84
2022/11/18 13:01:04;;;;;;;;;;;18.30;99.90;;;;;;5032509;28;19913;-84
2022/11/18 13:03:31;;;;;;;;;;;17.90;99.90;;;;;;5032547;28;20287;-84
2022/11/18 13:05:58;;;;;;;;;;;17.80;99.90;;;;;;5030695;28;20331;-85
2022/11/18 13:08:24;;;;;;;;;;;17.90;99.90;;;;;;5032859;28;19931;-84
2022/11/18 13:13:44;;;;;;;;;;;17.30;99.90;;;;;;5035588;28;20374;-84
2022/11/18 13:19:02;;;;;;;;;;;17.40;99.90;;;;;;5036246;28;20486;-82
2022/11/18 13:24:13;;;;;;;;;;;17.20;99.90;;;;;;5036077;28;19935;-83
2022/11/18 13:26:40;;;;;;;;;;;16.70;99.90;;;;;;5034570;28;19909;-83
2022/11/18 13:29:25;;;;;;;;;;;16.50;99.90;;;;;;5035802;28;19917;-83
2022/11/18 13:31:50;;;;;;;;;;;16.50;99.90;;;;;;5034434;28;19913;-83
2022/11/18 13:34:20;;;;;;;;;;;16.10;99.90;;;;;;5036034;28;19909;-83
2022/11/18 13:36:47;;;;;;;;;;;15.80;99.90;;;;;;5035279;28;19916;-84
2022/11/18 13:39:23;;;;;;;;;;;15.50;99.90;;;;;;5034217;28;19916;-83
2022/11/18 13:41:59;;;;;;;;;;;15.30;99.90;;;;;;5035607;28;19955;-84
2022/11/18 13:44:26;;;;;;;;;;;15.10;99.90;;;;;;5033849;28;19946;-83
2022/11/18 13:47:04;;;;;;;;;;;14.90;99.90;;;;;;5035547;28;19924;-83
2022/11/18 13:49:34;;;;;;;;;;;15.00;99.90;;;;;;5035284;28;20359;-84
2022/11/18 13:52:00;;;;;;;;;;;15.00;99.90;;;;;;5034061;28;20020;-83
2022/11/18 13:54:25;;;;;;;;;;;15.00;99.90;;;;;;5035216;28;20537;-83
2022/11/18 13:56:52;;;;;;;;;;;15.10;99.90;;;;;;5033839;28;20334;-83
2022/11/18 13:59:19;;;;;;;;;;;15.00;99.90;;;;;;5030028;28;19913;-84
2022/11/18 14:01:45;;;;;;;;;;;15.00;99.90;;;;;;5034454;28;19909;-83
2022/11/18 14:04:30;;;;;;;;;;;15.00;99.90;;;;;;5033501;28;19917;-82
2022/11/18 14:07:14;;;;;;;;;;;15.00;99.90;;;;;;5035305;28;19992;-83
2022/11/18 14:09:50;;;;;;;;;;;15.00;99.90;;;;;;5033580;28;19913;-84
2022/11/18 14:12:18;;;;;;;;;;;14.90;99.90;;;;;;5035271;28;19991;-83
2022/11/18 14:14:45;;;;;;;;;;;14.90;99.90;;;;;;5033441;28;20275;-84
2022/11/18 14:17:13;;;;;;;;;;;14.80;99.90;;;;;;5035071;28;20290;-84
2022/11/18 14:19:39;;;;;;;;;;;14.70;99.90;;;;;;5033543;28;19956;-84
2022/11/18 14:22:05;;;;;;;;;;;14.70;99.90;;;;;;5033299;28;19931;-83
2022/11/18 14:24:31;;;;;;;;;;;14.70;99.90;;;;;;5031661;28;19936;-81
2022/11/18 14:26:56;;;;;;;;;;;14.60;99.90;;;;;;5032852;28;20255;-82
2022/11/18 14:29:22;;;;;;;;;;;14.50;99.90;;;;;;5034314;28;19909;-82
2022/11/18 14:32:03;;;;;;;;;;;14.50;99.90;;;;;;5032871;28;20016;-85
2022/11/18 14:34:29;;;;;;;;;;;14.40;99.90;;;;;;5032499;28;19909;-83
2022/11/18 14:36:55;;;;;;;;;;;14.30;99.90;;;;;;5034198;28;19988;-83
2022/11/18 14:39:28;;;;;;;;;;;14.30;99.90;;;;;;5032605;28;19956;-83
2022/11/18 14:41:54;;;;;;;;;;;14.30;99.90;;;;;;5033079;28;19909;-83
2022/11/18 14:44:20;;;;;;;;;;;14.30;99.90;;;;;;5033917;28;19978;-83
2022/11/18 14:46:47;;;;;;;;;;;14.30;99.90;;;;;;5032776;28;19909;-82
2022/11/18 14:49:15;;;;;;;;;;;14.20;99.90;;;;;;5034268;28;19909;-83
2022/11/18 14:51:40;;;;;;;;;;;14.20;99.90;;;;;;5033658;28;20286;-83
2022/11/18 14:54:06;;;;;;;;;;;14.20;99.90;;;;;;5033764;28;19909;-83
2022/11/18 14:56:32;;;;;;;;;;;14.10;99.90;;;;;;5033776;28;20375;-83
2022/11/18 14:58:58;;;;;;;;;;;14.10;99.90;;;;;;5034096;28;19909;-83
2022/11/18 15:01:24;;;;;;;;;;;14.10;99.90;;;;;;5049130;28;20278;-83
2022/11/18 15:03:50;;;;;;;;;;;14.10;99.90;;;;;;5032204;28;19963;-83
2022/11/18 15:06:16;;;;;;;;;;;14.10;99.90;;;;;;5034602;28;19909;-83
2022/11/18 15:08:43;;;;;;;;;;;14.10;99.90;;;;;;5032910;28;19909;-83
2022/11/18 15:11:08;;;;;;;;;;;14.00;99.90;;;;;;5032853;28;19910;-82
2022/11/18 15:13:34;;;;;;;;;;;14.00;99.90;;;;;;5034684;28;19915;-82
2022/11/18 15:16:00;;;;;;;;;;;13.90;99.90;;;;;;5033300;28;19909;-82
2022/11/18 15:18:26;;;;;;;;;;;13.80;99.90;;;;;;5034126;28;19925;-83
2022/11/18 15:20:51;;;;;;;;;;;13.70;99.90;;;;;;5033959;28;19951;-81
2022/11/18 15:23:17;;;;;;;;;;;13.60;99.90;;;;;;5049029;28;19910;-81
2022/11/18 15:25:43;;;;;;;;;;;13.60;99.90;;;;;;5032499;28;19939;-82